createdAt,value
2023-05-09T00:01:27.621Z,26.07
2023-05-09T00:03:55.316Z,25.97
2023-05-09T00:06:24.151Z,26.16
2023-05-09T00:08:51.471Z,26.20
2023-05-09T00:11:18.779Z,25.99
2023-05-09T00:13:45.908Z,26.23
2023-05-09T00:16:14.071Z,26.06
2023-05-09T00:18:42.504Z,26.07
2023-05-09T00:21:12.826Z,26.14
2023-05-09T00:23:40.051Z,26.04
2023-05-09T00:26:06.782Z,26.16
2023-05-09T00:28:34.263Z,26.12
2023-05-09T00:31:01.365Z,26.05
2023-05-09T00:33:28.278Z,25.87
2023-05-09T00:35:55.213Z,26.04
2023-05-09T00:38:22.853Z,25.97
2023-05-09T00:40:49.932Z,25.84
2023-05-09T00:43:17.176Z,26.01
2023-05-09T00:45:45.529Z,26.16
2023-05-09T00:48:13.023Z,26.17
2023-05-09T00:50:39.711Z,26.02
2023-05-09T00:53:08.344Z,25.95
2023-05-09T00:55:35.362Z,26.11
2023-05-09T00:58:03.474Z,26.12
2023-05-09T01:00:30.090Z,25.81
2023-05-09T01:02:57.083Z,26.03
2023-05-09T01:05:26.429Z,26.06
2023-05-09T01:08:01.037Z,26.14
2023-05-09T01:10:57.270Z,26.19
2023-05-09T01:14:01.559Z,26.19
2023-05-09T01:17:28.562Z,26.06
2023-05-09T01:20:24.028Z,26.17
2023-05-09T01:23:01.664Z,26.14
2023-05-09T01:25:49.571Z,26.08
2023-05-09T01:28:29.869Z,26.09
2023-05-09T01:30:56.672Z,25.67
2023-05-09T01:33:23.218Z,26.04
2023-05-09T01:35:52.443Z,26.03
2023-05-09T01:38:21.020Z,26.05
2023-05-09T01:40:49.373Z,25.95
2023-05-09T01:43:17.037Z,25.97
2023-05-09T01:45:43.750Z,26.01
2023-05-09T01:48:10.774Z,26.05
2023-05-09T01:50:39.681Z,26.06
2023-05-09T01:53:06.987Z,25.85
2023-05-09T01:55:34.610Z,26.04
2023-05-09T01:58:02.393Z,26.06
2023-05-09T02:00:29.518Z,26.05
2023-05-09T02:02:56.679Z,26.03
2023-05-09T02:05:26.287Z,26.02
2023-05-09T02:07:53.959Z,26.02
2023-05-09T02:10:21.557Z,25.88
2023-05-09T02:12:48.246Z,25.84
2023-05-09T02:15:15.235Z,25.89
2023-05-09T02:17:42.982Z,25.97
2023-05-09T02:20:10.432Z,26.00
2023-05-09T02:22:38.145Z,25.98
2023-05-09T02:25:07.355Z,26.01
2023-05-09T02:27:34.155Z,25.95
2023-05-09T02:30:04.135Z,26.03
2023-05-09T02:32:31.863Z,25.82
2023-05-09T02:34:59.180Z,25.93
2023-05-09T02:37:26.075Z,26.04
2023-05-09T02:39:53.067Z,25.95
2023-05-09T02:42:22.649Z,26.03
2023-05-09T02:44:50.070Z,25.78
2023-05-09T02:47:17.181Z,25.59
2023-05-09T02:49:45.224Z,26.02
2023-05-09T02:52:13.837Z,26.00
2023-05-09T02:54:41.472Z,25.86
2023-05-09T02:57:09.165Z,25.82
2023-05-09T02:59:35.877Z,25.91
2023-05-09T03:02:03.220Z,25.79
2023-05-09T03:04:31.001Z,25.90
2023-05-09T03:06:58.084Z,25.68
2023-05-09T03:09:29.969Z,25.66
2023-05-09T03:11:59.233Z,25.89
2023-05-09T03:14:26.591Z,25.94
2023-05-09T03:16:54.649Z,25.90
2023-05-09T03:19:30.806Z,25.98
2023-05-09T03:21:57.938Z,25.97
2023-05-09T03:24:28.276Z,25.94
2023-05-09T03:26:55.582Z,25.92
2023-05-09T03:29:22.555Z,25.95
2023-05-09T03:31:49.496Z,25.95
2023-05-09T03:34:16.706Z,25.65
2023-05-09T03:36:44.694Z,25.80
2023-05-09T03:39:13.826Z,25.99
2023-05-09T03:41:44.290Z,25.94
2023-05-09T03:44:12.775Z,25.94
2023-05-09T03:46:41.524Z,25.93
2023-05-09T03:49:08.866Z,25.94
2023-05-09T03:51:36.937Z,25.85
2023-05-09T03:54:08.746Z,25.94
2023-05-09T03:56:36.394Z,25.92
2023-05-09T03:59:04.366Z,25.98
2023-05-09T04:01:33.709Z,25.76
2023-05-09T04:04:02.710Z,25.65
2023-05-09T04:06:35.900Z,25.91
2023-05-09T04:09:04.740Z,25.77
2023-05-09T04:11:31.524Z,25.57
2023-05-09T04:14:00.187Z,25.86
2023-05-09T04:16:31.713Z,25.83
2023-05-09T04:18:59.310Z,26.01
2023-05-09T04:21:26.452Z,25.95
2023-05-09T04:23:56.941Z,25.78
2023-05-09T04:26:32.691Z,25.86
2023-05-09T04:29:01.241Z,25.96
2023-05-09T04:31:31.729Z,26.02
2023-05-09T04:34:00.551Z,25.94
2023-05-09T04:36:32.116Z,25.84
2023-05-09T04:39:00.312Z,25.90
2023-05-09T04:41:28.820Z,25.87
2023-05-09T04:43:56.186Z,25.95
2023-05-09T04:46:26.158Z,26.04
2023-05-09T04:48:54.063Z,25.96
2023-05-09T04:51:21.137Z,25.96
2023-05-09T04:53:48.559Z,25.84
2023-05-09T04:56:17.834Z,25.77
2023-05-09T04:58:46.880Z,25.94
2023-05-09T05:01:14.460Z,25.93
2023-05-09T05:03:41.789Z,25.85
2023-05-09T05:06:08.550Z,25.89
2023-05-09T05:08:39.593Z,25.85
2023-05-09T05:11:06.397Z,25.79
2023-05-09T05:13:34.656Z,25.75
2023-05-09T05:16:02.481Z,25.77
2023-05-09T05:18:29.253Z,25.73
2023-05-09T05:20:56.430Z,25.77
2023-05-09T05:23:24.861Z,25.77
2023-05-09T05:25:53.821Z,25.84
2023-05-09T05:28:21.427Z,25.84
2023-05-09T05:30:49.525Z,25.83
2023-05-09T05:33:16.177Z,25.84
2023-05-09T05:35:43.452Z,25.88
2023-05-09T05:38:10.667Z,25.89
2023-05-09T05:40:38.761Z,25.83
2023-05-09T05:43:07.064Z,25.73
2023-05-09T05:45:35.354Z,25.92
2023-05-09T05:48:05.434Z,25.85
2023-05-09T05:50:33.160Z,25.89
2023-05-09T05:52:59.919Z,25.81
2023-05-09T05:55:28.504Z,25.96
2023-05-09T05:57:55.168Z,25.82
2023-05-09T06:00:24.964Z,25.94
2023-05-09T06:03:01.810Z,25.83
2023-05-09T06:05:35.645Z,26.00
2023-05-09T06:08:02.942Z,25.96
2023-05-09T06:10:31.877Z,25.84
2023-05-09T06:12:58.648Z,26.03
2023-05-09T06:15:25.675Z,26.04
2023-05-09T06:17:53.038Z,26.07
2023-05-09T06:20:20.422Z,26.02
2023-05-09T06:22:48.488Z,25.91
2023-05-09T06:25:15.605Z,26.04
2023-05-09T06:27:42.764Z,25.90
2023-05-09T06:30:23.856Z,26.10
2023-05-09T06:32:53.281Z,26.00
2023-05-09T06:35:21.293Z,26.12
2023-05-09T06:37:48.764Z,26.12
2023-05-09T06:40:16.392Z,26.00
2023-05-09T06:42:43.090Z,26.12
2023-05-09T06:45:10.207Z,26.17
2023-05-09T06:47:37.604Z,25.99
2023-05-09T06:50:05.487Z,26.09
2023-05-09T06:52:32.246Z,26.04
2023-05-09T06:54:58.875Z,26.19
2023-05-09T06:57:25.781Z,26.20
2023-05-09T06:59:52.658Z,26.16
2023-05-09T07:02:19.621Z,26.12
2023-05-09T07:04:46.859Z,26.02
2023-05-09T07:07:13.951Z,26.21
2023-05-09T07:09:40.873Z,26.18
2023-05-09T07:12:08.550Z,26.18
2023-05-09T07:14:36.101Z,26.21
2023-05-09T07:17:18.750Z,26.20
2023-05-09T07:19:49.591Z,26.05
2023-05-09T07:22:16.355Z,26.13
2023-05-09T07:24:44.648Z,25.94
2023-05-09T07:27:11.717Z,26.16
2023-05-09T07:29:38.732Z,26.20
2023-05-09T07:32:05.870Z,25.82
2023-05-09T07:34:32.827Z,26.06
2023-05-09T07:37:00.380Z,26.07
2023-05-09T07:39:27.466Z,26.03
2023-05-09T07:41:54.216Z,26.03
2023-05-09T07:44:21.393Z,26.07
2023-05-09T07:46:48.574Z,26.14
2023-05-09T07:49:15.637Z,26.20
2023-05-09T07:51:42.341Z,26.19
2023-05-09T07:54:10.381Z,26.18
2023-05-09T07:56:37.108Z,26.22
2023-05-09T07:59:05.257Z,26.03
2023-05-09T08:01:32.411Z,26.01
2023-05-09T08:03:59.254Z,26.17
2023-05-09T08:06:26.410Z,26.07
2023-05-09T08:08:53.547Z,26.14
2023-05-09T08:11:20.863Z,26.07
2023-05-09T08:13:48.299Z,25.97
2023-05-09T08:16:17.435Z,26.11
2023-05-09T08:18:45.113Z,26.00
2023-05-09T08:21:12.336Z,26.16
2023-05-09T08:23:40.923Z,26.16
2023-05-09T08:26:08.312Z,26.06
2023-05-09T08:28:35.487Z,26.24
2023-05-09T08:31:02.574Z,26.18
2023-05-09T08:33:29.547Z,26.14
2023-05-09T08:35:56.729Z,26.11
2023-05-09T08:38:25.024Z,25.97
2023-05-09T08:40:51.962Z,26.26
2023-05-09T08:43:19.493Z,26.22
2023-05-09T08:45:48.268Z,26.20
2023-05-09T08:48:19.930Z,26.19
2023-05-09T08:50:47.116Z,26.20
2023-05-09T08:53:15.172Z,26.06
2023-05-09T08:55:42.328Z,26.09
2023-05-09T08:58:13.465Z,26.24
2023-05-09T09:00:41.751Z,26.18
2023-05-09T09:03:09.216Z,26.18
2023-05-09T09:05:41.842Z,26.21
2023-05-09T09:08:09.724Z,26.27
2023-05-09T09:10:37.117Z,26.07
2023-05-09T09:13:04.944Z,26.23
2023-05-09T09:15:36.308Z,26.22
2023-05-09T09:18:09.529Z,26.07
2023-05-09T09:20:38.728Z,26.12
2023-05-09T09:23:05.834Z,26.10
2023-05-09T09:25:32.562Z,26.05
2023-05-09T09:27:59.603Z,26.27
2023-05-09T09:30:27.086Z,26.27
2023-05-09T09:32:53.841Z,26.30
2023-05-09T09:35:21.971Z,26.25
2023-05-09T09:37:50.418Z,26.25
2023-05-09T09:40:18.335Z,26.18
2023-05-09T09:42:48.422Z,26.07
2023-05-09T09:45:15.099Z,26.44
2023-05-09T09:47:43.603Z,26.28
2023-05-09T09:50:14.639Z,26.24
2023-05-09T09:52:56.206Z,26.42
2023-05-09T09:55:26.255Z,26.44
2023-05-09T09:57:53.321Z,26.42
2023-05-09T10:00:24.963Z,26.43
2023-05-09T10:02:56.650Z,26.26
2023-05-09T10:05:30.828Z,26.43
2023-05-09T10:08:01.561Z,26.29
2023-05-09T10:10:33.683Z,26.38
2023-05-09T10:13:05.472Z,26.27
2023-05-09T10:15:41.440Z,26.37
2023-05-09T10:18:20.114Z,26.34
2023-05-09T10:20:47.282Z,26.41
2023-05-09T10:23:13.944Z,26.28
2023-05-09T10:25:57.748Z,26.40
2023-05-09T10:28:28.329Z,26.43
2023-05-09T10:31:14.179Z,26.39
2023-05-09T10:34:05.747Z,26.30
2023-05-09T10:36:32.569Z,26.34
2023-05-09T10:39:01.288Z,26.27
2023-05-09T10:41:29.232Z,26.28
2023-05-09T10:43:57.158Z,26.35
2023-05-09T10:46:24.366Z,26.12
2023-05-09T10:48:51.114Z,26.06
2023-05-09T10:51:17.799Z,26.06
2023-05-09T10:53:49.016Z,26.26
2023-05-09T10:56:45.147Z,26.45
2023-05-09T10:59:38.813Z,26.27
2023-05-09T11:02:06.936Z,26.44
2023-05-09T11:04:35.755Z,26.38
2023-05-09T11:07:03.903Z,26.30
2023-05-09T11:09:35.823Z,26.37
2023-05-09T11:12:06.812Z,26.53
2023-05-09T11:14:41.494Z,26.51
2023-05-09T11:17:29.166Z,26.09
2023-05-09T11:20:06.765Z,26.42
2023-05-09T11:22:43.849Z,26.46
2023-05-09T11:25:36.794Z,26.42
2023-05-09T11:28:03.640Z,26.52
2023-05-09T11:30:41.104Z,26.57
2023-05-09T11:33:30.328Z,26.12
2023-05-09T11:36:29.418Z,26.53
2023-05-09T11:39:09.658Z,26.52
2023-05-09T11:41:55.115Z,26.46
2023-05-09T11:44:22.201Z,25.99
2023-05-09T11:46:49.211Z,26.32
2023-05-09T11:49:17.022Z,26.30
2023-05-09T11:51:44.343Z,26.25
2023-05-09T11:54:12.673Z,26.44
2023-05-09T11:56:42.639Z,26.38
2023-05-09T11:59:13.332Z,26.34
2023-05-09T12:01:40.272Z,26.25
2023-05-09T12:04:08.853Z,26.49
2023-05-09T12:06:36.356Z,26.28
2023-05-09T12:09:03.750Z,26.30
2023-05-09T12:11:32.458Z,26.44
2023-05-09T12:13:59.387Z,26.41
2023-05-09T12:16:26.791Z,26.42
2023-05-09T12:18:53.807Z,26.11
2023-05-09T12:21:21.767Z,26.42
2023-05-09T12:23:53.097Z,26.50
2023-05-09T12:26:22.235Z,26.49
2023-05-09T12:28:49.303Z,26.51
2023-05-09T12:31:16.550Z,26.35
2023-05-09T12:33:44.344Z,26.48
2023-05-09T12:36:11.994Z,26.57
2023-05-09T12:38:39.382Z,26.52
2023-05-09T12:41:21.930Z,26.50
2023-05-09T12:43:57.210Z,26.57
2023-05-09T12:46:25.176Z,26.50
2023-05-09T12:48:52.627Z,26.46
2023-05-09T12:51:20.976Z,26.56
2023-05-09T12:53:47.892Z,26.61
2023-05-09T12:56:19.561Z,26.47
2023-05-09T12:58:53.386Z,26.67
2023-05-09T13:01:20.927Z,26.52
2023-05-09T13:04:14.131Z,26.66
2023-05-09T13:06:55.878Z,26.70
2023-05-09T13:09:23.100Z,26.50
2023-05-09T13:11:51.176Z,26.56
2023-05-09T13:14:21.873Z,26.56
2023-05-09T13:16:49.303Z,26.61
2023-05-09T13:19:16.734Z,26.40
2023-05-09T13:21:43.987Z,26.53
2023-05-09T13:24:10.858Z,26.65
2023-05-09T13:26:38.010Z,26.27
2023-05-09T13:29:04.808Z,26.52
2023-05-09T13:31:32.142Z,26.57
2023-05-09T13:33:59.708Z,26.60
2023-05-09T13:36:26.784Z,26.64
2023-05-09T13:38:54.246Z,26.69
2023-05-09T13:41:22.404Z,26.63
2023-05-09T13:43:50.599Z,26.53
2023-05-09T13:46:17.653Z,26.56
2023-05-09T13:48:47.632Z,26.56
2023-05-09T13:51:14.921Z,26.67
2023-05-09T13:53:42.525Z,26.61
2023-05-09T13:56:09.983Z,26.55
2023-05-09T13:58:36.889Z,26.58
2023-05-09T14:01:03.643Z,26.51
2023-05-09T14:03:32.196Z,25.89
2023-05-09T14:06:00.089Z,26.02
2023-05-09T14:08:27.256Z,25.48
2023-05-09T14:10:54.803Z,25.55
2023-05-09T14:13:21.635Z,25.26
2023-05-09T14:15:48.785Z,25.27
2023-05-09T14:18:19.118Z,25.06
2023-05-09T14:20:48.670Z,25.47
2023-05-09T14:23:16.175Z,25.53
2023-05-09T14:25:45.147Z,25.72
2023-05-09T14:28:13.207Z,25.70
2023-05-09T14:30:40.611Z,25.75
2023-05-09T14:33:07.871Z,25.85
2023-05-09T14:35:35.698Z,26.00
2023-05-09T14:38:03.968Z,26.14
2023-05-09T14:40:32.347Z,26.13
2023-05-09T14:43:01.719Z,26.23
2023-05-09T14:45:33.117Z,26.28
2023-05-09T14:48:00.597Z,26.13
2023-05-09T14:50:27.525Z,26.32
2023-05-09T14:52:54.881Z,26.37
2023-05-09T14:55:23.147Z,26.32
2023-05-09T14:57:50.231Z,26.37
2023-05-09T15:00:21.851Z,26.47
2023-05-09T15:02:51.821Z,26.46
2023-05-09T15:05:19.341Z,26.54
2023-05-09T15:07:49.805Z,26.49
2023-05-09T15:10:16.932Z,26.53
2023-05-09T15:12:44.438Z,26.50
2023-05-09T15:15:18.387Z,26.52
2023-05-09T15:17:45.391Z,26.48
2023-05-09T15:20:13.625Z,26.48
2023-05-09T15:22:41.620Z,26.54
2023-05-09T15:25:10.184Z,26.43
2023-05-09T15:27:37.774Z,26.43
2023-05-09T15:30:06.258Z,26.50
2023-05-09T15:32:33.370Z,26.36
2023-05-09T15:35:00.121Z,26.55
2023-05-09T15:37:27.615Z,26.47
2023-05-09T15:39:54.679Z,26.58
2023-05-09T15:42:21.541Z,26.46
2023-05-09T15:44:48.361Z,26.49
2023-05-09T15:47:15.410Z,26.45
2023-05-09T15:49:42.797Z,26.61
2023-05-09T15:52:10.964Z,26.55
2023-05-09T15:54:40.364Z,26.53
2023-05-09T15:57:08.192Z,26.35
2023-05-09T15:59:34.919Z,26.48
2023-05-09T16:02:03.251Z,26.46
2023-05-09T16:04:31.007Z,26.41
2023-05-09T16:06:58.350Z,26.44
2023-05-09T16:09:25.923Z,26.34
2023-05-09T16:11:54.060Z,26.44
2023-05-09T16:14:21.208Z,26.32
2023-05-09T16:16:50.059Z,26.25
2023-05-09T16:19:16.959Z,26.21
2023-05-09T16:21:46.377Z,26.25
2023-05-09T16:24:13.794Z,26.31
2023-05-09T16:26:40.699Z,26.33
2023-05-09T16:29:07.535Z,26.31
2023-05-09T16:31:35.868Z,26.38
2023-05-09T16:34:03.329Z,26.39
2023-05-09T16:36:32.939Z,26.20
2023-05-09T16:38:59.982Z,26.28
2023-05-09T16:41:27.329Z,26.30
2023-05-09T16:43:54.274Z,26.31
2023-05-09T16:46:21.418Z,26.33
2023-05-09T16:48:51.137Z,26.26
2023-05-09T16:51:18.379Z,26.33
2023-05-09T16:53:46.238Z,26.15
2023-05-09T16:56:13.633Z,26.37
2023-05-09T16:58:40.897Z,26.26
2023-05-09T17:01:07.943Z,26.36
2023-05-09T17:03:35.621Z,26.21
2023-05-09T17:06:02.885Z,26.25
2023-05-09T17:08:29.953Z,26.32
2023-05-09T17:10:57.914Z,26.32
2023-05-09T17:13:24.910Z,26.18
2023-05-09T17:15:52.865Z,26.20
2023-05-09T17:18:33.338Z,26.32
2023-05-09T17:21:03.586Z,26.23
2023-05-09T17:23:31.572Z,26.21
2023-05-09T17:25:58.529Z,26.27
2023-05-09T17:28:26.185Z,26.01
2023-05-09T17:30:53.764Z,26.25
2023-05-09T17:33:20.941Z,26.12
2023-05-09T17:35:49.741Z,25.90
2023-05-09T17:38:17.727Z,26.18
2023-05-09T17:40:44.756Z,26.03
2023-05-09T17:43:13.506Z,26.13
2023-05-09T17:45:48.933Z,26.22
2023-05-09T17:48:16.562Z,26.17
2023-05-09T17:50:44.122Z,25.91
2023-05-09T17:53:11.453Z,26.03
2023-05-09T17:55:39.878Z,26.12
2023-05-09T17:58:08.364Z,26.24
2023-05-09T18:00:35.796Z,26.09
2023-05-09T18:03:04.284Z,26.28
2023-05-09T18:05:31.586Z,26.21
2023-05-09T18:08:01.127Z,26.24
2023-05-09T18:10:29.545Z,26.26
2023-05-09T18:12:57.221Z,26.18
2023-05-09T18:15:25.149Z,26.19
2023-05-09T18:17:55.116Z,26.24
2023-05-09T18:20:22.288Z,26.05
2023-05-09T18:22:49.401Z,26.13
2023-05-09T18:25:17.546Z,26.27
2023-05-09T18:27:45.284Z,26.23
2023-05-09T18:30:13.065Z,26.17
2023-05-09T18:32:42.100Z,26.16
2023-05-09T18:35:09.291Z,26.25
2023-05-09T18:37:37.289Z,26.25
2023-05-09T18:40:06.192Z,25.82
2023-05-09T18:42:34.162Z,26.08
2023-05-09T18:45:04.253Z,26.23
2023-05-09T18:47:31.713Z,26.17
2023-05-09T18:50:02.516Z,26.11
2023-05-09T18:52:31.711Z,25.94
2023-05-09T18:54:59.554Z,26.11
2023-05-09T18:57:26.559Z,26.08
2023-05-09T19:10:17.203Z,26.14
2023-05-09T19:13:02.431Z,26.11
2023-05-09T19:15:44.502Z,26.02
2023-05-09T19:18:31.900Z,26.09
2023-05-09T19:21:56.900Z,26.12
2023-05-09T19:24:42.563Z,26.16
2023-05-09T19:28:15.887Z,26.25
2023-05-09T19:31:27.820Z,26.05
2023-05-09T19:34:11.497Z,26.08
2023-05-09T19:36:48.156Z,26.13
2023-05-09T19:39:29.917Z,26.13
2023-05-09T19:42:03.731Z,26.17
2023-05-09T19:44:45.083Z,25.95
2023-05-09T19:47:15.134Z,26.19
2023-05-09T19:49:44.430Z,26.16
2023-05-09T19:52:11.815Z,26.13
2023-05-09T19:55:29.597Z,26.21
2023-05-09T19:58:00.218Z,26.17
2023-05-09T20:00:31.056Z,26.08
2023-05-09T20:02:58.095Z,25.90
2023-05-09T20:05:25.338Z,25.99
2023-05-09T20:07:56.797Z,26.05
2023-05-09T20:10:24.196Z,25.76
2023-05-09T20:12:53.079Z,25.96
2023-05-09T20:15:27.938Z,26.01
2023-05-09T20:18:17.628Z,26.04
2023-05-09T20:20:56.668Z,25.81
2023-05-09T20:23:24.435Z,26.02
2023-05-09T20:25:51.783Z,26.10
2023-05-09T20:28:24.210Z,25.59
2023-05-09T20:30:51.608Z,25.65
2023-05-09T20:33:19.116Z,26.09
2023-05-09T20:35:47.758Z,25.74
2023-05-09T20:38:15.969Z,25.88
2023-05-09T20:40:46.125Z,26.08
2023-05-09T20:43:14.209Z,26.01
2023-05-09T20:45:43.731Z,26.06
2023-05-09T20:48:12.906Z,26.07
2023-05-09T20:50:41.530Z,26.00
2023-05-09T20:53:11.787Z,25.93
2023-05-09T20:55:39.935Z,25.91
2023-05-09T20:58:07.628Z,26.03
2023-05-09T21:00:38.780Z,26.03
2023-05-09T21:03:14.419Z,26.06
2023-05-09T21:05:42.286Z,25.90
2023-05-09T21:08:10.672Z,25.57
2023-05-09T21:10:37.536Z,26.04
2023-05-09T21:13:05.634Z,25.94
2023-05-09T21:15:32.900Z,26.04
2023-05-09T21:18:01.484Z,25.99
2023-05-09T21:20:28.304Z,26.03
2023-05-09T21:22:57.112Z,26.05
2023-05-09T21:25:24.144Z,25.95
2023-05-09T21:27:52.100Z,25.85
2023-05-09T21:30:18.983Z,26.03
2023-05-09T21:32:46.833Z,26.01
2023-05-09T21:35:14.354Z,26.05
2023-05-09T21:37:41.454Z,25.92
2023-05-09T21:40:11.034Z,26.02
2023-05-09T21:42:40.545Z,26.03
2023-05-09T21:45:08.227Z,26.03
2023-05-09T21:47:36.507Z,26.00
2023-05-09T21:50:04.286Z,25.79
2023-05-09T21:52:31.711Z,25.90
2023-05-09T21:54:59.836Z,25.89
2023-05-09T21:57:26.921Z,25.89
2023-05-09T21:59:56.722Z,26.05
2023-05-09T22:02:23.799Z,26.00
2023-05-09T22:04:51.703Z,25.82
2023-05-09T22:07:18.798Z,25.92
2023-05-09T22:09:45.582Z,26.02
2023-05-09T22:12:12.792Z,25.87
2023-05-09T22:14:52.715Z,25.95
2023-05-09T22:17:22.351Z,25.91
2023-05-09T22:19:49.668Z,25.97
2023-05-09T22:22:16.932Z,25.94
2023-05-09T22:24:43.816Z,25.95
2023-05-09T22:27:11.111Z,25.86
2023-05-09T22:29:38.059Z,25.82
2023-05-09T22:32:07.755Z,25.94
2023-05-09T22:34:35.514Z,25.93
2023-05-09T22:37:03.864Z,25.81
2023-05-09T22:39:30.917Z,25.93
2023-05-09T22:41:57.812Z,25.92
2023-05-09T22:44:26.058Z,25.84
2023-05-09T22:46:52.973Z,25.91
2023-05-09T22:49:20.081Z,25.90
2023-05-09T22:51:47.040Z,25.88
2023-05-09T22:54:13.640Z,25.71
2023-05-09T22:56:40.585Z,25.81
2023-05-09T22:59:07.538Z,25.82
2023-05-09T23:01:34.351Z,25.85
2023-05-09T23:04:01.520Z,25.82
2023-05-09T23:06:32.263Z,25.53
2023-05-09T23:08:58.900Z,25.73
2023-05-09T23:11:26.454Z,25.83
2023-05-09T23:13:53.714Z,25.88
2023-05-09T23:16:20.855Z,25.76
2023-05-09T23:18:48.038Z,25.83
2023-05-09T23:21:14.770Z,25.71
2023-05-09T23:23:42.243Z,25.81
2023-05-09T23:26:10.378Z,25.86
2023-05-09T23:28:37.362Z,25.76
2023-05-09T23:31:04.319Z,25.71
2023-05-09T23:33:31.203Z,25.76
2023-05-09T23:35:58.059Z,25.64
2023-05-09T23:38:25.287Z,25.64
2023-05-09T23:40:53.100Z,25.85
2023-05-09T23:43:20.415Z,25.68
2023-05-09T23:45:47.245Z,25.85
2023-05-09T23:48:15.302Z,25.75
2023-05-09T23:50:42.389Z,25.71
2023-05-09T23:53:10.149Z,25.61
2023-05-09T23:55:37.627Z,25.82
2023-05-09T23:58:04.297Z,25.63
